sensor_id;sensor_type;location;lat;lon;timestamp;pressure;altitude;pressure_sealevel;temperature;humidity
61128;BME280;47013;42.664;23.242;2023-03-03T07:54:59;93964.34;;;8.35;100.00
61128;BME280;47013;42.664;23.242;2023-03-03T07:57:29;93977.13;;;7.81;100.00
61128;BME280;47013;42.664;23.242;2023-03-03T08:01:24;93972.84;;;7.48;100.00
61128;BME280;47013;42.664;23.242;2023-03-03T08:02:59;93973.09;;;6.79;90.44
61128;BME280;47013;42.664;23.242;2023-03-03T08:05:36;93969.47;;;6.39;93.09
61128;BME280;47013;42.664;23.242;2023-03-03T08:08:14;93969.03;;;6.27;95.62
61128;BME280;47013;42.664;23.242;2023-03-03T08:10:46;93976.47;;;5.89;96.04
61128;BME280;47013;42.664;23.242;2023-03-03T08:13:20;93970.16;;;5.71;97.14
61128;BME280;47013;42.664;23.242;2023-03-03T08:15:49;93974.94;;;5.44;98.82
61128;BME280;47013;42.664;23.242;2023-03-03T08:18:29;93966.81;;;5.37;100.00
61128;BME280;47013;42.664;23.242;2023-03-03T08:20:59;93964.56;;;5.42;100.00
61128;BME280;47013;42.664;23.242;2023-03-03T08:23:25;93968.88;;;5.50;100.00
61128;BME280;47013;42.664;23.242;2023-03-03T08:25:51;93962.34;;;5.51;100.00
61128;BME280;47013;42.664;23.242;2023-03-03T08:28:17;93965.66;;;5.34;100.00
61128;BME280;47013;42.664;23.242;2023-03-03T08:30:43;93957.44;;;5.20;100.00
61128;BME280;47013;42.664;23.242;2023-03-03T08:33:09;93952.72;;;5.06;100.00
61128;BME280;47013;42.664;23.242;2023-03-03T08:35:34;93950.78;;;5.07;100.00
61128;BME280;47013;42.664;23.242;2023-03-03T08:38:01;93954.47;;;4.91;100.00
61128;BME280;47013;42.664;23.242;2023-03-03T08:40:26;93953.03;;;4.97;100.00
61128;BME280;47013;42.664;23.242;2023-03-03T08:42:52;93957.69;;;5.04;100.00
61128;BME280;47013;42.664;23.242;2023-03-03T08:45:18;93957.38;;;5.09;100.00
61128;BME280;47013;42.664;23.242;2023-03-03T08:47:44;93959.84;;;5.28;100.00
61128;BME280;47013;42.664;23.242;2023-03-03T08:50:10;93964.94;;;5.41;100.00
61128;BME280;47013;42.664;23.242;2023-03-03T08:52:36;93955.72;;;5.42;100.00
61128;BME280;47013;42.664;23.242;2023-03-03T08:55:02;93959.63;;;5.48;100.00
61128;BME280;47013;42.664;23.242;2023-03-03T08:57:28;93950.38;;;5.04;100.00
61128;BME280;47013;42.664;23.242;2023-03-03T08:59:54;93955.56;;;5.24;100.00
61128;BME280;47013;42.664;23.242;2023-03-03T09:02:19;93959.84;;;5.28;100.00
61128;BME280;47013;42.664;23.242;2023-03-03T09:04:44;93962.13;;;5.26;100.00
61128;BME280;47013;42.664;23.242;2023-03-03T09:07:10;93961.66;;;5.17;100.00
61128;BME280;47013;42.664;23.242;2023-03-03T09:09:35;93951.22;;;5.09;100.00
61128;BME280;47013;42.664;23.242;2023-03-03T09:12:24;93957.44;;;5.20;100.00
61128;BME280;47013;42.664;23.242;2023-03-03T09:14:51;93956.00;;;5.29;100.00
61128;BME280;47013;42.664;23.242;2023-03-03T09:17:23;93962.22;;;5.37;100.00
61128;BME280;47013;42.664;23.242;2023-03-03T09:19:50;93953.13;;;5.56;100.00
61128;BME280;47013;42.664;23.242;2023-03-03T09:22:24;93958.41;;;5.42;100.00
61128;BME280;47013;42.664;23.242;2023-03-03T09:24:53;93950.91;;;5.61;100.00
61128;BME280;47013;42.664;23.242;2023-03-03T09:27:23;93958.28;;;5.75;100.00
61128;BME280;47013;42.664;23.242;2023-03-03T09:29:51;93960.22;;;5.78;100.00
61128;BME280;47013;42.664;23.242;2023-03-03T09:32:23;93960.63;;;5.84;100.00
61128;BME280;47013;42.664;23.242;2023-03-03T09:34:51;93957.28;;;5.90;100.00
61128;BME280;47013;42.664;23.242;2023-03-03T09:37:21;93961.13;;;5.93;100.00
61128;BME280;47013;42.664;23.242;2023-03-03T09:39:49;93954.66;;;6.01;100.00
61128;BME280;47013;42.664;23.242;2023-03-03T09:45:59;93957.81;;;6.21;96.89
61128;BME280;47013;42.664;23.242;2023-03-03T09:53:59;93960.59;;;6.32;93.31
61128;BME280;47013;42.664;23.242;2023-03-03T09:56:33;93956.75;;;6.33;93.41
61128;BME280;47013;42.664;23.242;2023-03-03T10:12:51;93948.00;;;6.57;95.64
61128;BME280;47013;42.664;23.242;2023-03-03T10:15:29;93952.63;;;6.57;94.33
61128;BME280;47013;42.664;23.242;2023-03-03T10:26:15;93944.16;;;6.55;95.23
61128;BME280;47013;42.664;23.242;2023-03-03T10:41:56;93935.31;;;6.58;94.69
61128;BME280;47013;42.664;23.242;2023-03-03T11:00:55;93919.13;;;6.54;97.52
61128;BME280;47013;42.664;23.242;2023-03-03T11:05:57;93913.31;;;6.48;97.11
61128;BME280;47013;42.664;23.242;2023-03-03T11:08:40;93910.63;;;6.48;98.79
61128;BME280;47013;42.664;23.242;2023-03-03T11:13:47;93902.94;;;6.50;99.83
61128;BME280;47013;42.664;23.242;2023-03-03T11:16:24;93898.75;;;6.53;99.68
61128;BME280;47013;42.664;23.242;2023-03-03T11:21:36;93893.34;;;6.60;100.00
61128;BME280;47013;42.664;23.242;2023-03-03T11:27:06;93886.00;;;6.46;100.00
61128;BME280;47013;42.664;23.242;2023-03-03T11:35:15;93889.88;;;6.56;100.00
61128;BME280;47013;42.664;23.242;2023-03-03T11:43:15;93895.63;;;6.47;100.00
61128;BME280;47013;42.664;23.242;2023-03-03T11:45:52;93880.63;;;6.43;100.00
61128;BME280;47013;42.664;23.242;2023-03-03T11:51:22;93886.00;;;6.46;100.00
61128;BME280;47013;42.664;23.242;2023-03-03T11:54:18;93886.44;;;6.52;100.00
61128;BME280;47013;42.664;23.242;2023-03-03T11:56:47;93868.72;;;6.55;100.00
61128;BME280;47013;42.664;23.242;2023-03-03T12:04:45;93869.50;;;6.55;100.00
61128;BME280;47013;42.664;23.242;2023-03-03T12:12:39;93877.91;;;6.46;100.00
61128;BME280;47013;42.664;23.242;2023-03-03T12:16:09;93873.69;;;6.42;100.00
61128;BME280;47013;42.664;23.242;2023-03-03T12:23:45;93871.59;;;6.00;100.00
61128;BME280;47013;42.664;23.242;2023-03-03T12:26:32;93870.34;;;5.86;100.00
61128;BME280;47013;42.664;23.242;2023-03-03T12:29:06;93867.25;;;5.84;100.00
61128;BME280;47013;42.664;23.242;2023-03-03T12:35:10;93874.53;;;5.84;100.00
61128;BME280;47013;42.664;23.242;2023-03-03T12:38:13;93876.09;;;5.85;100.00
61128;BME280;47013;42.664;23.242;2023-03-03T12:40:33;93872.69;;;5.91;100.00
61128;BME280;47013;42.664;23.242;2023-03-03T12:43:45;93865.03;;;5.94;100.00
61128;BME280;47013;42.664;23.242;2023-03-03T12:49:00;93883.84;;;5.90;100.00
61128;BME280;47013;42.664;23.242;2023-03-03T12:51:44;93884.63;;;5.90;100.00
61128;BME280;47013;42.664;23.242;2023-03-03T13:02:49;93860.06;;;6.03;100.00
61128;BME280;47013;42.664;23.242;2023-03-03T13:10:34;93855.78;;;5.91;100.00
61128;BME280;47013;42.664;23.242;2023-03-03T13:13:23;93857.63;;;5.83;100.00
61128;BME280;47013;42.664;23.242;2023-03-03T13:16:11;93854.63;;;5.92;100.00
61128;BME280;47013;42.664;23.242;2023-03-03T13:18:52;93861.19;;;5.95;100.00
61128;BME280;47013;42.664;23.242;2023-03-03T13:21:26;93859.63;;;5.90;100.00
61128;BME280;47013;42.664;23.242;2023-03-03T13:24:02;93856.97;;;5.97;100.00
61128;BME280;47013;42.664;23.242;2023-03-03T13:26:35;93860.06;;;5.99;100.00
61128;BME280;47013;42.664;23.242;2023-03-03T13:29:13;93858.91;;;6.00;100.00
61128;BME280;47013;42.664;23.242;2023-03-03T13:31:48;93859.72;;;6.11;100.00
61128;BME280;47013;42.664;23.242;2023-03-03T13:34:45;93860.53;;;6.19;100.00
61128;BME280;47013;42.664;23.242;2023-03-03T13:37:29;93872.47;;;6.25;100.00
61128;BME280;47013;42.664;23.242;2023-03-03T13:40:44;93869.41;;;6.27;100.00
61128;BME280;47013;42.664;23.242;2023-03-03T13:42:58;93862.09;;;6.34;100.00
61128;BME280;47013;42.664;23.242;2023-03-03T13:51:39;93858.25;;;6.32;100.00
61128;BME280;47013;42.664;23.242;2023-03-03T14:05:44;93864.94;;;6.80;100.00
61128;BME280;47013;42.664;23.242;2023-03-03T14:08:28;93860.69;;;6.79;100.00
61128;BME280;47013;42.664;23.242;2023-03-03T14:14:13;93861.44;;;6.73;100.00
61128;BME280;47013;42.664;23.242;2023-03-03T14:19:31;93860.31;;;6.85;100.00
61128;BME280;47013;42.664;23.242;2023-03-03T14:27:36;93848.78;;;6.91;100.00
61128;BME280;47013;42.664;23.242;2023-03-03T14:33:04;93854.53;;;7.00;100.00
61128;BME280;47013;42.664;23.242;2023-03-03T14:35:47;93851.47;;;7.02;100.00
61128;BME280;47013;42.664;23.242;2023-03-03T14:38:19;93853.81;;;7.03;100.00
61128;BME280;47013;42.664;23.242;2023-03-03T14:40:47;93851.44;;;6.88;100.00
61128;BME280;47013;42.664;23.242;2023-03-03T14:43:32;93850.69;;;6.87;100.00
61128;BME280;47013;42.664;23.242;2023-03-03T14:46:35;93846.44;;;6.86;100.00
61128;BME280;47013;42.664;23.242;2023-03-03T14:49:12;93854.91;;;6.81;100.00
61128;BME280;47013;42.664;23.242;2023-03-03T14:51:45;93856.06;;;6.80;100.00
61128;BME280;47013;42.664;23.242;2023-03-03T14:54:26;93851.84;;;6.79;100.00
61128;BME280;47013;42.664;23.242;2023-03-03T14:57:19;93840.28;;;6.86;100.00
61128;BME280;47013;42.664;23.242;2023-03-03T14:59:56;93848.00;;;6.91;100.00
61128;BME280;47013;42.664;23.242;2023-03-03T15:02:28;93841.06;;;6.90;100.00
61128;BME280;47013;42.664;23.242;2023-03-03T15:05:26;93838.00;;;6.91;100.00
61128;BME280;47013;42.664;23.242;2023-03-03T15:10:36;93842.97;;;6.89;100.00
61128;BME280;47013;42.664;23.242;2023-03-03T15:13:30;93848.00;;;6.80;100.00
61128;BME280;47013;42.664;23.242;2023-03-03T15:16:09;93844.50;;;6.65;100.00
61128;BME280;47013;42.664;23.242;2023-03-03T15:18:48;93839.88;;;6.66;100.00
61128;BME280;47013;42.664;23.242;2023-03-03T15:21:17;93836.41;;;6.62;100.00
61128;BME280;47013;42.664;23.242;2023-03-03T15:24:02;93836.00;;;6.63;100.00
61128;BME280;47013;42.664;23.242;2023-03-03T15:29:48;93836.41;;;6.51;100.00
61128;BME280;47013;42.664;23.242;2023-03-03T15:32:31;93844.09;;;6.56;100.00
61128;BME280;47013;42.664;23.242;2023-03-03T15:35:30;93842.94;;;6.61;100.00
61128;BME280;47013;42.664;23.242;2023-03-03T15:41:07;93847.91;;;6.48;100.00
61128;BME280;47013;42.664;23.242;2023-03-03T15:49:38;93856.78;;;6.52;100.00
61128;BME280;47013;42.664;23.242;2023-03-03T16:03:19;93862.91;;;6.49;100.00
61128;BME280;47013;42.664;23.242;2023-03-03T16:05:52;93871.38;;;6.47;100.00
61128;BME280;47013;42.664;23.242;2023-03-03T16:08:38;93871.03;;;6.56;100.00
61128;BME280;47013;42.664;23.242;2023-03-03T16:17:01;93876.41;;;6.63;100.00
61128;BME280;47013;42.664;23.242;2023-03-03T16:25:00;93880.69;;;6.68;100.00
61128;BME280;47013;42.664;23.242;2023-03-03T16:33:13;93881.06;;;6.70;100.00
61128;BME280;47013;42.664;23.242;2023-03-03T16:35:53;93888.38;;;6.69;100.00
61128;BME280;47013;42.664;23.242;2023-03-03T16:38:39;93888.78;;;6.68;100.00
61128;BME280;47013;42.664;23.242;2023-03-03T16:41:18;93898.75;;;6.60;100.00
61128;BME280;47013;42.664;23.242;2023-03-03T16:43:59;93901.47;;;6.71;100.00
61128;BME280;47013;42.664;23.242;2023-03-03T16:54:37;93912.59;;;6.52;100.00
61128;BME280;47013;42.664;23.242;2023-03-03T16:57:33;93921.06;;;6.54;100.00
61128;BME280;47013;42.664;23.242;2023-03-03T17:08:26;93922.59;;;6.62;100.00
61128;BME280;47013;42.664;23.242;2023-03-03T17:32:55;93937.16;;;6.39;100.00
61128;BME280;47013;42.664;23.242;2023-03-03T17:38:00;93942.50;;;6.32;100.00
61128;BME280;47013;42.664;23.242;2023-03-03T17:40:51;93946.34;;;6.28;100.00
61128;BME280;47013;42.664;23.242;2023-03-03T17:43:47;93957.06;;;6.24;100.00
61128;BME280;47013;42.664;23.242;2023-03-03T17:57:30;93971.59;;;6.05;100.00
61128;BME280;47013;42.664;23.242;2023-03-03T18:00:45;93967.72;;;5.99;100.00
61128;BME280;47013;42.664;23.242;2023-03-03T18:11:28;93984.97;;;5.98;100.00
61128;BME280;47013;42.664;23.242;2023-03-03T18:19:55;93982.53;;;5.82;100.00
61128;BME280;47013;42.664;23.242;2023-03-03T18:25:00;93987.91;;;5.79;100.00
61128;BME280;47013;42.664;23.242;2023-03-03T18:27:32;93989.81;;;5.78;100.00
61128;BME280;47013;42.664;23.242;2023-03-03T18:32:46;93996.28;;;5.70;100.00
61128;BME280;47013;42.664;23.242;2023-03-03T18:38:23;94001.22;;;5.61;100.00
61128;BME280;47013;42.664;23.242;2023-03-03T18:41:10;93995.34;;;5.48;100.00
61128;BME280;47013;42.664;23.242;2023-03-03T18:46:54;93986.91;;;5.50;100.00
61128;BME280;47013;42.664;23.242;2023-03-03T18:49:04;93993.25;;;5.31;100.00
61128;BME280;47013;42.664;23.242;2023-03-03T18:53:59;94002.38;;;5.19;100.00
61128;BME280;47013;42.664;23.242;2023-03-03T19:02:09;94013.19;;;5.26;100.00
61128;BME280;47013;42.664;23.242;2023-03-03T19:04:38;94016.31;;;5.32;100.00
61128;BME280;47013;42.664;23.242;2023-03-03T19:07:56;94023.72;;;5.42;100.00
61128;BME280;47013;42.664;23.242;2023-03-03T19:10:48;94019.22;;;5.53;100.00
61128;BME280;47013;42.664;23.242;2023-03-03T19:16:09;94018.84;;;5.58;100.00
61128;BME280;47013;42.664;23.242;2023-03-03T19:18:58;94030.47;;;5.66;100.00
61128;BME280;47013;42.664;23.242;2023-03-03T19:21:36;94031.63;;;5.69;100.00
61128;BME280;47013;42.664;23.242;2023-03-03T19:24:24;94037.47;;;5.78;100.00
61128;BME280;47013;42.664;23.242;2023-03-03T19:27:00;94044.81;;;5.81;100.00
61128;BME280;47013;42.664;23.242;2023-03-03T19:35:28;94038.72;;;5.87;100.00
61128;BME280;47013;42.664;23.242;2023-03-03T19:46:34;94028.34;;;5.86;100.00
61128;BME280;47013;42.664;23.242;2023-03-03T19:51:51;94026.03;;;5.88;100.00
61128;BME280;47013;42.664;23.242;2023-03-03T19:55:01;94017.25;;;5.95;100.00
61128;BME280;47013;42.664;23.242;2023-03-03T19:57:34;94020.41;;;6.00;100.00
61128;BME280;47013;42.664;23.242;2023-03-03T20:11:09;94024.38;;;6.24;100.00
61128;BME280;47013;42.664;23.242;2023-03-03T20:15:16;94023.66;;;6.27;100.00
61128;BME280;47013;42.664;23.242;2023-03-03T20:39:00;94023.97;;;6.15;100.00
61128;BME280;47013;42.664;23.242;2023-03-03T20:41:47;94024.75;;;6.19;100.00
61128;BME280;47013;42.664;23.242;2023-03-03T20:47:03;94013.59;;;6.24;100.00
61128;BME280;47013;42.664;23.242;2023-03-03T20:50:03;94010.16;;;6.24;100.00
61128;BME280;47013;42.664;23.242;2023-03-03T21:03:37;94006.34;;;6.28;100.00
61128;BME280;47013;42.664;23.242;2023-03-03T21:06:04;94001.72;;;6.29;100.00
61128;BME280;47013;42.664;23.242;2023-03-03T21:11:05;93999.38;;;6.20;100.00
61128;BME280;47013;42.664;23.242;2023-03-03T21:16:28;94003.81;;;5.98;100.00
61128;BME280;47013;42.664;23.242;2023-03-03T21:19:09;94011.09;;;5.90;100.00
61128;BME280;47013;42.664;23.242;2023-03-03T21:21:40;94019.06;;;5.83;100.00
61128;BME280;47013;42.664;23.242;2023-03-03T21:24:08;94024.06;;;5.81;100.00
61128;BME280;47013;42.664;23.242;2023-03-03T21:29:32;94029.41;;;5.78;100.00
61128;BME280;47013;42.664;23.242;2023-03-03T21:32:06;94037.88;;;5.80;100.00
61128;BME280;47013;42.664;23.242;2023-03-03T21:36:59;94039.41;;;5.81;100.00
61128;BME280;47013;42.664;23.242;2023-03-03T21:42:09;94038.63;;;5.77;100.00
61128;BME280;47013;42.664;23.242;2023-03-03T21:44:35;94037.00;;;5.69;100.00
61128;BME280;47013;42.664;23.242;2023-03-03T21:47:02;94029.28;;;5.63;100.00
61128;BME280;47013;42.664;23.242;2023-03-03T21:49:28;94030.06;;;5.64;100.00
61128;BME280;47013;42.664;23.242;2023-03-03T21:51:54;94026.16;;;5.58;100.00
61128;BME280;47013;42.664;23.242;2023-03-03T21:54:20;94021.22;;;5.63;100.00
61128;BME280;47013;42.664;23.242;2023-03-03T21:56:46;94020.81;;;5.61;100.00
61128;BME280;47013;42.664;23.242;2023-03-03T21:59:12;94026.59;;;5.60;100.00
61128;BME280;47013;42.664;23.242;2023-03-03T22:01:38;94028.44;;;5.56;100.00
61128;BME280;47013;42.664;23.242;2023-03-03T22:04:03;94030.34;;;5.52;100.00
61128;BME280;47013;42.664;23.242;2023-03-03T22:06:29;94019.91;;;5.47;100.00
61128;BME280;47013;42.664;23.242;2023-03-03T22:08:55;94025.66;;;5.45;100.00
61128;BME280;47013;42.664;23.242;2023-03-03T22:11:20;94025.72;;;5.49;100.00
61128;BME280;47013;42.664;23.242;2023-03-03T22:13:46;94023.34;;;5.44;100.00
61128;BME280;47013;42.664;23.242;2023-03-03T22:16:11;94031.84;;;5.49;100.00
61128;BME280;47013;42.664;23.242;2023-03-03T22:18:37;94029.88;;;5.43;100.00
61128;BME280;47013;42.664;23.242;2023-03-03T22:21:03;94027.19;;;5.46;100.00
61128;BME280;47013;42.664;23.242;2023-03-03T22:23:30;94026.09;;;5.51;100.00
61128;BME280;47013;42.664;23.242;2023-03-03T22:25:55;94033.03;;;5.52;100.00
61128;BME280;47013;42.664;23.242;2023-03-03T22:28:20;94028.41;;;5.52;100.00
61128;BME280;47013;42.664;23.242;2023-03-03T22:30:46;94043.41;;;5.53;100.00
61128;BME280;47013;42.664;23.242;2023-03-03T22:33:11;94028.03;;;5.54;100.00
61128;BME280;47013;42.664;23.242;2023-03-03T22:35:37;94037.66;;;5.55;100.00
61128;BME280;47013;42.664;23.242;2023-03-03T22:38:02;94041.13;;;5.55;100.00
61128;BME280;47013;42.664;23.242;2023-03-03T22:40:28;94041.91;;;5.56;100.00
61128;BME280;47013;42.664;23.242;2023-03-03T22:42:54;94038.47;;;5.59;100.00
61128;BME280;47013;42.664;23.242;2023-03-03T22:45:19;94035.00;;;5.58;100.00
61128;BME280;47013;42.664;23.242;2023-03-03T22:47:45;94036.97;;;5.61;100.00
61128;BME280;47013;42.664;23.242;2023-03-03T22:50:11;94041.56;;;5.61;100.00
61128;BME280;47013;42.664;23.242;2023-03-03T22:52:36;94043.13;;;5.66;100.00
61128;BME280;47013;42.664;23.242;2023-03-03T22:55:02;94042.00;;;5.67;100.00
61128;BME280;47013;42.664;23.242;2023-03-03T22:57:30;94037.78;;;5.69;100.00
61128;BME280;47013;42.664;23.242;2023-03-03T22:59:56;94045.09;;;5.72;100.00
61128;BME280;47013;42.664;23.242;2023-03-03T23:02:21;94044.00;;;5.73;100.00
61128;BME280;47013;42.664;23.242;2023-03-03T23:04:46;94046.69;;;5.73;100.00
61128;BME280;47013;42.664;23.242;2023-03-03T23:07:12;94051.31;;;5.76;100.00
61128;BME280;47013;42.664;23.242;2023-03-03T23:09:37;94045.09;;;5.72;100.00
61128;BME280;47013;42.664;23.242;2023-03-03T23:12:03;94054.69;;;5.70;100.00
61128;BME280;47013;42.664;23.242;2023-03-03T23:14:28;94061.63;;;5.71;100.00
61128;BME280;47013;42.664;23.242;2023-03-03T23:16:54;94061.63;;;5.71;100.00
61128;BME280;47013;42.664;23.242;2023-03-03T23:19:19;94054.31;;;5.71;100.00
61128;BME280;47013;42.664;23.242;2023-03-03T23:21:45;94058.22;;;5.74;100.00
61128;BME280;47013;42.664;23.242;2023-03-03T23:24:10;94067.84;;;5.78;100.00
61128;BME280;47013;42.664;23.242;2023-03-03T23:26:36;94063.63;;;5.81;100.00
61128;BME280;47013;42.664;23.242;2023-03-03T23:29:03;94054.81;;;5.84;100.00
61128;BME280;47013;42.664;23.242;2023-03-03T23:31:28;94044.09;;;5.87;100.00
61128;BME280;47013;42.664;23.242;2023-03-03T23:33:54;94049.88;;;5.89;100.00
61128;BME280;47013;42.664;23.242;2023-03-03T23:36:20;94057.94;;;5.86;100.00
61128;BME280;47013;42.664;23.242;2023-03-03T23:38:45;94053.66;;;5.85;100.00
61128;BME280;47013;42.664;23.242;2023-03-03T23:41:10;94050.63;;;5.86;100.00
61128;BME280;47013;42.664;23.242;2023-03-03T23:43:36;94053.72;;;5.88;100.00
61128;BME280;47013;42.664;23.242;2023-03-03T23:46:01;94042.91;;;5.85;100.00
61128;BME280;47013;42.664;23.242;2023-03-03T23:48:27;94043.34;;;5.87;100.00
61128;BME280;47013;42.664;23.242;2023-03-03T23:50:52;94047.50;;;5.84;100.00
61128;BME280;47013;42.664;23.242;2023-03-03T23:53:17;94047.50;;;5.84;100.00
61128;BME280;47013;42.664;23.242;2023-03-03T23:55:43;94050.19;;;5.81;100.00
61128;BME280;47013;42.664;23.242;2023-03-03T23:58:10;94043.63;;;5.78;100.00
